createdAt,value
2023-04-18T00:00:40.677Z,163.30
2023-04-18T00:01:40.734Z,165.06
2023-04-18T00:02:40.924Z,165.62
2023-04-18T00:03:40.947Z,166.51
2023-04-18T00:04:40.856Z,167.04
2023-04-18T00:05:40.857Z,167.41
2023-04-18T00:06:40.938Z,170.26
2023-04-18T00:07:40.981Z,174.90
2023-04-18T00:08:40.974Z,177.91
2023-04-18T00:09:41.064Z,176.13
2023-04-18T00:10:41.088Z,179.83
2023-04-18T00:11:41.098Z,184.07
2023-04-18T00:12:41.173Z,188.98
2023-04-18T00:13:41.171Z,193.03
2023-04-18T00:14:41.258Z,196.02
2023-04-18T00:15:41.275Z,198.21
2023-04-18T00:16:41.406Z,194.64
2023-04-18T00:17:41.479Z,195.45
2023-04-18T00:18:41.402Z,197.54
2023-04-18T00:19:41.449Z,196.80
2023-04-18T00:20:41.506Z,189.08
2023-04-18T00:21:41.546Z,186.32
2023-04-18T00:22:41.581Z,183.03
2023-04-18T00:23:41.635Z,178.04
2023-04-18T00:24:41.681Z,177.47
2023-04-18T00:25:42.539Z,175.93
2023-04-18T00:26:41.697Z,176.51
2023-04-18T00:27:41.749Z,177.26
2023-04-18T00:28:41.726Z,176.19
2023-04-18T00:29:41.699Z,178.39
2023-04-18T00:30:41.768Z,178.39
2023-04-18T00:31:41.804Z,176.87
2023-04-18T00:32:41.783Z,179.30
2023-04-18T00:33:41.773Z,185.80
2023-04-18T00:34:41.754Z,187.86
2023-04-18T00:35:41.831Z,188.16
2023-04-18T00:36:41.865Z,187.49
2023-04-18T00:37:41.941Z,189.04
2023-04-18T00:38:41.966Z,189.71
2023-04-18T00:39:42.005Z,189.73
2023-04-18T00:40:42.024Z,193.40
2023-04-18T00:41:42.098Z,193.33
2023-04-18T00:42:42.156Z,194.13
2023-04-18T00:43:42.261Z,195.57
2023-04-18T00:44:42.262Z,196.66
2023-04-18T00:45:42.364Z,197.99
2023-04-18T00:46:42.390Z,193.99
2023-04-18T00:47:42.534Z,190.49
2023-04-18T00:48:42.490Z,194.96
2023-04-18T00:49:42.536Z,191.62
2023-04-18T00:50:42.627Z,188.99
2023-04-18T00:51:42.686Z,189.23
2023-04-18T00:52:42.745Z,188.19
2023-04-18T00:53:42.753Z,189.08
2023-04-18T00:54:42.773Z,190.17
2023-04-18T00:55:42.836Z,187.93
2023-04-18T00:56:42.904Z,189.26
2023-04-18T00:57:42.933Z,189.58
2023-04-18T00:58:43.007Z,192.26
2023-04-18T00:59:43.065Z,193.83
2023-04-18T01:00:43.157Z,190.18
2023-04-18T01:01:43.306Z,190.36
2023-04-18T01:02:43.381Z,192.09
2023-04-18T01:03:43.516Z,190.93
2023-04-18T01:04:43.398Z,187.53
2023-04-18T01:05:43.405Z,185.22
2023-04-18T01:06:43.454Z,186.75
2023-04-18T01:07:43.470Z,190.43
2023-04-18T01:08:43.506Z,189.53
2023-04-18T01:09:43.587Z,182.72
2023-04-18T01:10:43.596Z,175.91
2023-04-18T01:11:43.690Z,173.66
2023-04-18T01:12:43.678Z,169.61
2023-04-18T01:13:43.666Z,168.57
2023-04-18T01:14:43.683Z,169.26
2023-04-18T01:15:43.824Z,173.61
2023-04-18T01:16:43.733Z,177.64
2023-04-18T01:17:43.830Z,177.69
2023-04-18T01:18:43.790Z,176.40
2023-04-18T01:19:43.852Z,175.69
2023-04-18T01:20:43.886Z,175.19
2023-04-18T01:21:44.025Z,175.50
2023-04-18T01:22:44.049Z,174.78
2023-04-18T01:23:44.030Z,172.81
2023-04-18T01:24:44.118Z,171.49
2023-04-18T01:25:44.164Z,174.35
2023-04-18T01:26:44.203Z,174.66
2023-04-18T01:27:44.215Z,174.91
2023-04-18T01:28:44.228Z,176.46
2023-04-18T01:29:44.299Z,170.08
2023-04-18T01:30:44.291Z,167.88
2023-04-18T01:31:44.399Z,167.00
2023-04-18T01:32:44.388Z,170.81
2023-04-18T01:33:44.454Z,176.88
2023-04-18T01:34:44.482Z,176.63
2023-04-18T01:35:44.522Z,177.09
2023-04-18T01:36:44.603Z,176.42
2023-04-18T01:37:44.594Z,173.71
2023-04-18T01:38:44.639Z,172.45
2023-04-18T01:39:44.659Z,170.71
2023-04-18T01:40:44.658Z,167.73
2023-04-18T01:41:44.661Z,168.71
2023-04-18T01:42:44.737Z,168.55
2023-04-18T01:43:44.740Z,168.35
2023-04-18T01:44:44.734Z,173.49
2023-04-18T01:45:44.777Z,174.08
2023-04-18T01:46:44.800Z,170.76
2023-04-18T01:47:44.958Z,162.83
2023-04-18T01:48:44.871Z,159.45
2023-04-18T01:49:44.986Z,151.16
2023-04-18T01:50:44.991Z,150.63
2023-04-18T01:51:45.044Z,149.25
2023-04-18T01:52:45.125Z,149.73
2023-04-18T01:53:45.127Z,153.36
2023-04-18T01:54:45.177Z,154.96
2023-04-18T01:55:45.225Z,155.36
2023-04-18T01:56:45.295Z,160.53
2023-04-18T01:57:45.310Z,166.62
2023-04-18T01:58:45.362Z,170.06
2023-04-18T01:59:45.390Z,171.24
2023-04-18T02:00:45.507Z,171.14
2023-04-18T02:01:45.604Z,175.69
2023-04-18T02:02:46.159Z,175.94
2023-04-18T02:03:45.853Z,176.65
2023-04-18T02:04:45.719Z,177.75
2023-04-18T02:05:45.714Z,175.60
2023-04-18T02:06:45.764Z,171.63
2023-04-18T02:07:45.865Z,169.63
2023-04-18T02:08:45.875Z,168.85
2023-04-18T02:09:45.899Z,165.75
2023-04-18T02:10:45.998Z,160.33
2023-04-18T02:11:46.062Z,158.22
2023-04-18T02:12:46.137Z,159.13
2023-04-18T02:13:46.126Z,161.75
2023-04-18T02:14:46.189Z,165.46
2023-04-18T02:15:46.229Z,167.80
2023-04-18T02:16:46.413Z,168.81
2023-04-18T02:17:46.325Z,169.00
2023-04-18T02:18:46.310Z,163.95
2023-04-18T02:19:46.351Z,162.67
2023-04-18T02:20:46.412Z,159.95
2023-04-18T02:21:46.437Z,163.82
2023-04-18T02:22:46.478Z,167.05
2023-04-18T02:23:46.562Z,172.18
2023-04-18T02:24:46.506Z,173.72
2023-04-18T02:25:46.569Z,174.24
2023-04-18T02:26:46.608Z,175.88
2023-04-18T02:27:46.681Z,169.83
2023-04-18T02:28:46.689Z,161.50
2023-04-18T02:29:46.747Z,159.66
2023-04-18T02:30:46.744Z,160.79
2023-04-18T02:31:46.852Z,163.77
2023-04-18T02:32:46.904Z,159.36
2023-04-18T02:33:46.858Z,160.11
2023-04-18T02:34:46.925Z,157.49
2023-04-18T02:35:46.943Z,148.36
2023-04-18T02:36:46.957Z,147.79
2023-04-18T02:37:47.009Z,148.34
2023-04-18T02:38:47.019Z,151.27
2023-04-18T02:39:47.015Z,154.78
2023-04-18T02:40:47.066Z,142.29
2023-04-18T02:41:47.139Z,116.27
2023-04-18T02:42:47.144Z,102.53
2023-04-18T02:43:47.139Z,90.17
2023-04-18T02:44:47.141Z,88.96
2023-04-18T02:45:47.206Z,92.87
2023-04-18T02:46:47.171Z,96.32
2023-04-18T02:47:55.182Z,102.48
2023-04-18T02:48:48.218Z,102.74
2023-04-18T02:49:47.217Z,105.87
2023-04-18T02:50:47.205Z,111.69
2023-04-18T02:51:47.205Z,120.13
2023-04-18T02:52:47.154Z,128.82
2023-04-18T02:53:47.169Z,128.07
2023-04-18T02:54:47.118Z,129.03
2023-04-18T02:55:47.158Z,126.41
2023-04-18T02:56:47.124Z,125.70
2023-04-18T02:57:47.127Z,132.32
2023-04-18T02:58:47.098Z,133.56
2023-04-18T02:59:47.105Z,136.25
2023-04-18T03:00:47.111Z,139.01
2023-04-18T03:01:47.162Z,135.88
2023-04-18T03:02:47.156Z,138.44
2023-04-18T03:03:47.178Z,137.15
2023-04-18T03:04:47.172Z,135.80
2023-04-18T03:05:47.145Z,136.90
2023-04-18T03:06:47.145Z,133.96
2023-04-18T03:07:47.163Z,136.58
2023-04-18T03:08:47.155Z,136.39
2023-04-18T03:09:47.166Z,141.68
2023-04-18T03:10:47.191Z,147.69
2023-04-18T03:11:47.181Z,146.51
2023-04-18T03:12:47.183Z,138.21
2023-04-18T03:13:47.201Z,137.82
2023-04-18T03:14:47.249Z,140.29
2023-04-18T03:15:47.288Z,141.04
2023-04-18T03:16:47.323Z,142.92
2023-04-18T03:17:47.488Z,142.95
2023-04-18T03:18:47.392Z,147.43
2023-04-18T03:19:47.372Z,148.66
2023-04-18T03:20:47.411Z,150.66
2023-04-18T03:21:47.460Z,150.20
2023-04-18T03:22:47.486Z,152.23
2023-04-18T03:23:47.515Z,151.37
2023-04-18T03:24:47.649Z,149.44
2023-04-18T03:25:47.694Z,151.26
2023-04-18T03:26:47.685Z,153.31
2023-04-18T03:27:47.786Z,153.99
2023-04-18T03:28:47.705Z,156.36
2023-04-18T03:29:47.759Z,159.41
2023-04-18T03:30:47.818Z,158.18
2023-04-18T03:31:47.877Z,157.73
2023-04-18T03:32:48.023Z,156.42
2023-04-18T03:33:47.998Z,155.77
2023-04-18T03:34:48.056Z,158.55
2023-04-18T03:35:48.054Z,156.78
2023-04-18T03:36:48.407Z,153.09
2023-04-18T03:37:48.074Z,151.07
2023-04-18T03:38:48.083Z,150.55
2023-04-18T03:39:48.105Z,154.88
2023-04-18T03:40:48.146Z,153.63
2023-04-18T03:41:48.171Z,153.30
2023-04-18T03:42:48.232Z,153.55
2023-04-18T03:43:48.275Z,156.37
2023-04-18T03:44:48.275Z,161.63
2023-04-18T03:45:48.440Z,161.39
2023-04-18T03:46:48.452Z,165.61
2023-04-18T03:47:48.589Z,170.95
2023-04-18T03:48:48.479Z,175.37
2023-04-18T03:49:48.518Z,177.91
2023-04-18T03:50:48.531Z,182.64
2023-04-18T03:51:48.630Z,183.37
2023-04-18T03:52:48.700Z,188.37
2023-04-18T03:53:48.813Z,189.53
2023-04-18T03:54:48.833Z,191.90
2023-04-18T03:55:48.856Z,192.81
2023-04-18T03:56:48.979Z,188.23
2023-04-18T03:57:49.043Z,188.44
2023-04-18T03:58:49.060Z,190.59
2023-04-18T03:59:49.149Z,192.85
2023-04-18T04:00:49.262Z,192.03
2023-04-18T04:01:49.287Z,193.64
2023-04-18T04:02:49.418Z,193.00
2023-04-18T04:03:49.564Z,193.66
2023-04-18T04:04:49.435Z,191.07
2023-04-18T04:05:49.451Z,192.46
2023-04-18T04:06:49.600Z,193.92
2023-04-18T04:07:49.660Z,197.87
2023-04-18T04:08:49.631Z,197.33
2023-04-18T04:09:49.692Z,198.95
2023-04-18T04:10:49.675Z,202.38
2023-04-18T04:11:49.640Z,209.75
2023-04-18T04:12:49.734Z,212.40
2023-04-18T04:13:49.767Z,214.33
2023-04-18T04:14:49.824Z,217.81
2023-04-18T04:15:49.901Z,223.81
2023-04-18T04:16:50.128Z,227.35
2023-04-18T04:17:50.040Z,231.28
2023-04-18T04:18:50.046Z,234.27
2023-04-18T04:19:51.047Z,232.94
2023-04-18T04:20:50.214Z,238.38
2023-04-18T04:21:50.285Z,243.68
2023-04-18T04:22:50.318Z,247.48
2023-04-18T04:23:50.331Z,243.24
2023-04-18T04:24:50.463Z,241.79
2023-04-18T04:25:50.458Z,242.11
2023-04-18T04:26:50.533Z,240.93
2023-04-18T04:27:50.570Z,242.25
2023-04-18T04:28:50.666Z,245.06
2023-04-18T04:29:50.680Z,247.27
2023-04-18T04:30:50.831Z,246.21
2023-04-18T04:31:50.888Z,247.66
2023-04-18T04:32:50.906Z,250.00
2023-04-18T04:33:50.930Z,247.69
2023-04-18T04:34:50.988Z,246.54
2023-04-18T04:35:51.051Z,246.64
2023-04-18T04:36:51.122Z,248.87
2023-04-18T04:37:51.163Z,247.58
2023-04-18T04:38:51.218Z,235.25
2023-04-18T04:39:51.281Z,218.31
2023-04-18T04:40:51.273Z,203.71
2023-04-18T04:41:51.340Z,195.91
2023-04-18T04:42:51.427Z,194.38
2023-04-18T04:43:51.495Z,188.37
2023-04-18T04:44:51.538Z,194.26
2023-04-18T04:45:51.746Z,193.21
2023-04-18T04:46:51.615Z,192.08
2023-04-18T04:47:51.700Z,192.99
2023-04-18T04:48:51.750Z,197.37
2023-04-18T04:49:51.837Z,202.83
2023-04-18T04:50:51.865Z,202.64
2023-04-18T04:51:51.970Z,207.71
2023-04-18T04:52:52.011Z,209.40
2023-04-18T04:53:52.076Z,211.42
2023-04-18T04:54:52.089Z,213.51
2023-04-18T04:55:52.177Z,219.30
2023-04-18T04:56:52.216Z,230.63
2023-04-18T04:57:52.258Z,234.90
2023-04-18T04:58:52.264Z,234.94
2023-04-18T04:59:52.308Z,242.50
2023-04-18T05:02:21.336Z,25.00
2023-04-18T05:03:12.663Z,25.00
2023-04-18T05:04:12.565Z,25.00
2023-04-18T05:05:12.127Z,25.00
2023-04-18T05:06:12.120Z,25.00
2023-04-18T05:07:12.116Z,25.00
2023-04-18T05:08:12.202Z,25.00
2023-04-18T05:09:12.098Z,28.52
2023-04-18T05:10:12.369Z,38.32
2023-04-18T05:11:12.062Z,25.29
2023-04-18T05:12:12.064Z,25.42
2023-04-18T05:13:12.093Z,35.46
2023-04-18T05:14:12.256Z,52.37
2023-04-18T05:15:12.100Z,35.93
2023-04-18T05:16:12.096Z,13.57
2023-04-18T05:17:12.003Z,38.31
2023-04-18T05:18:12.051Z,42.28
2023-04-18T05:19:12.037Z,58.37
2023-04-18T05:20:12.036Z,88.31
2023-04-18T05:21:11.985Z,103.81
2023-04-18T05:22:12.021Z,104.33
2023-04-18T05:23:11.993Z,89.30
2023-04-18T05:24:12.128Z,83.23
2023-04-18T05:25:11.961Z,72.85
2023-04-18T05:26:12.023Z,56.54
2023-04-18T05:27:11.971Z,41.74
2023-04-18T05:28:12.004Z,76.06
2023-04-18T05:29:12.018Z,118.83
2023-04-18T05:30:12.027Z,134.97
2023-04-18T05:31:12.076Z,133.17
2023-04-18T05:32:11.954Z,132.88
2023-04-18T05:33:12.122Z,106.23
2023-04-18T05:35:12.325Z,46.70
2023-04-18T05:36:12.251Z,46.41
2023-04-18T05:37:12.561Z,0.00
2023-04-18T05:38:12.680Z,0.00
2023-04-18T05:39:12.370Z,27.03
2023-04-18T05:40:12.561Z,28.23
2023-04-18T05:41:12.464Z,41.47
2023-04-18T05:42:12.629Z,98.90
2023-04-18T05:43:12.639Z,218.06
2023-04-18T05:44:12.822Z,234.72
2023-04-18T05:45:12.704Z,175.10
2023-04-18T05:47:32.573Z,25.00
2023-04-18T05:48:32.472Z,25.00
2023-04-18T05:49:32.488Z,25.00
2023-04-18T05:50:32.272Z,25.00
2023-04-18T05:51:32.247Z,25.00
2023-04-18T05:52:32.226Z,31.60
2023-04-18T05:53:32.466Z,0.00
2023-04-18T05:54:32.196Z,0.00
2023-04-18T05:55:32.222Z,49.39
2023-04-18T05:56:32.215Z,74.32
2023-04-18T05:57:32.171Z,152.43
2023-04-18T05:58:32.261Z,249.69
2023-04-18T05:59:32.184Z,385.75
2023-04-18T06:00:32.173Z,363.02
2023-04-18T06:01:32.218Z,337.24
2023-04-18T06:02:32.409Z,324.99
2023-04-18T06:03:32.433Z,295.09
2023-04-18T06:04:32.268Z,250.38
2023-04-18T06:05:32.277Z,306.79
2023-04-18T06:06:32.109Z,346.98
2023-04-18T06:07:32.141Z,377.37
2023-04-18T06:08:32.220Z,381.44
2023-04-18T06:09:32.107Z,464.60
2023-04-18T06:10:32.120Z,500.00
2023-04-18T06:11:32.110Z,429.36
2023-04-18T06:12:32.181Z,363.92
2023-04-18T06:13:32.118Z,392.88
2023-04-18T06:14:32.087Z,327.99
2023-04-18T06:15:32.075Z,285.00
2023-04-18T06:16:32.115Z,352.96
2023-04-18T06:17:32.085Z,306.12
2023-04-18T06:18:33.511Z,254.86
2023-04-18T06:19:32.053Z,181.15
2023-04-18T06:20:32.050Z,180.77
2023-04-18T06:21:32.104Z,217.56
2023-04-18T06:22:32.035Z,263.70
2023-04-18T06:23:32.507Z,295.21
2023-04-18T06:24:31.996Z,251.79
2023-04-18T06:25:32.098Z,203.67
2023-04-18T06:26:32.023Z,191.20
2023-04-18T06:27:32.190Z,179.53
2023-04-18T06:28:32.009Z,194.14
2023-04-18T06:29:32.047Z,197.73
2023-04-18T06:30:31.988Z,173.17
2023-04-18T06:31:32.057Z,152.35
2023-04-18T06:32:31.975Z,148.85
2023-04-18T06:33:32.054Z,190.31
2023-04-18T06:34:32.028Z,200.81
2023-04-18T06:35:31.970Z,217.64
2023-04-18T06:36:31.970Z,239.15
2023-04-18T06:37:31.976Z,202.52
2023-04-18T06:38:31.986Z,207.80
2023-04-18T06:39:32.001Z,204.83
2023-04-18T06:40:32.097Z,215.93
2023-04-18T06:41:31.914Z,188.58
2023-04-18T06:42:31.991Z,179.33
2023-04-18T06:43:31.871Z,161.63
2023-04-18T06:44:31.989Z,160.41
2023-04-18T06:45:32.252Z,182.41
2023-04-18T06:46:31.976Z,196.75
2023-04-18T06:47:43.156Z,197.54
2023-04-18T06:48:32.066Z,197.77
2023-04-18T06:49:33.210Z,197.49
2023-04-18T06:50:31.982Z,178.89
2023-04-18T06:51:31.964Z,157.15
2023-04-18T06:52:31.981Z,158.81
2023-04-18T06:53:32.041Z,176.72
2023-04-18T06:54:32.985Z,176.75
2023-04-18T06:55:32.161Z,165.03
2023-04-18T06:56:33.466Z,161.02
2023-04-18T06:57:32.366Z,165.77
2023-04-18T06:58:32.235Z,161.72
2023-04-18T06:59:32.659Z,153.31
2023-04-18T07:00:32.209Z,141.60
2023-04-18T07:01:32.245Z,129.74
2023-04-18T07:02:32.321Z,124.63
2023-04-18T07:03:32.275Z,127.73
2023-04-18T07:04:32.496Z,132.99
2023-04-18T07:05:32.193Z,103.11
2023-04-18T07:06:32.171Z,91.75
2023-04-18T07:07:32.150Z,85.00
2023-04-18T07:08:32.131Z,76.94
2023-04-18T07:09:32.552Z,77.08
2023-04-18T07:10:32.856Z,89.98
2023-04-18T07:11:32.121Z,100.47
2023-04-18T07:12:32.421Z,102.83
2023-04-18T07:13:32.069Z,90.36
2023-04-18T07:14:34.195Z,73.01
2023-04-18T07:15:32.086Z,65.15
2023-04-18T07:16:32.433Z,68.18
2023-04-18T07:17:32.113Z,69.03
2023-04-18T07:18:38.106Z,63.17
2023-04-18T07:19:33.523Z,63.37
2023-04-18T07:20:32.184Z,56.21
2023-04-18T07:21:32.029Z,49.24
2023-04-18T07:22:32.089Z,55.67
2023-04-18T07:23:32.090Z,56.99
2023-04-18T07:24:32.090Z,46.65
2023-04-18T07:25:32.062Z,43.18
2023-04-18T07:26:32.210Z,23.63
2023-04-18T07:27:31.975Z,21.68
2023-04-18T07:28:32.009Z,21.13
2023-04-18T07:29:32.538Z,33.06
2023-04-18T07:30:32.070Z,38.87
2023-04-18T07:31:32.040Z,43.47
2023-04-18T07:32:31.978Z,44.84
2023-04-18T07:33:31.959Z,64.32
2023-04-18T07:34:32.564Z,74.98
2023-04-18T07:35:32.075Z,110.31
2023-04-18T07:36:32.175Z,93.21
2023-04-18T07:37:32.242Z,72.65
2023-04-18T07:38:32.379Z,43.01
2023-04-18T07:39:32.506Z,30.77
2023-04-18T07:40:32.370Z,24.72
2023-04-18T07:41:32.426Z,34.24
2023-04-18T07:42:32.539Z,42.98
2023-04-18T07:43:32.701Z,38.78
2023-04-18T07:44:33.028Z,38.33
2023-04-18T07:45:32.553Z,33.92
2023-04-18T07:46:32.700Z,21.30
2023-04-18T07:47:33.457Z,18.13
2023-04-18T07:48:32.615Z,19.84
2023-04-18T07:49:32.682Z,23.33
2023-04-18T07:50:32.693Z,30.84
2023-04-18T07:51:32.766Z,21.87
2023-04-18T07:52:32.765Z,147.94
2023-04-18T07:53:32.760Z,180.24
2023-04-18T07:54:32.830Z,246.68
2023-04-18T07:55:32.834Z,226.27
2023-04-18T07:56:32.888Z,253.11
2023-04-18T07:57:33.237Z,257.66
2023-04-18T07:58:33.070Z,244.83
2023-04-18T07:59:33.031Z,149.08
2023-04-18T08:00:33.086Z,138.89
2023-04-18T08:01:33.178Z,165.78
2023-04-18T08:02:33.302Z,163.47
2023-04-18T08:03:33.289Z,166.93
2023-04-18T08:04:33.318Z,169.83
2023-04-18T08:05:33.338Z,165.91
2023-04-18T08:06:33.316Z,142.77
2023-04-18T08:07:33.409Z,159.64
2023-04-18T08:08:33.381Z,135.41
2023-04-18T08:09:33.624Z,139.65
2023-04-18T08:10:33.437Z,131.69
2023-04-18T08:11:33.453Z,128.03
2023-04-18T08:12:33.468Z,88.70
2023-04-18T08:13:33.477Z,111.18
2023-04-18T08:14:33.546Z,101.21
2023-04-18T08:15:33.545Z,61.73
2023-04-18T08:16:33.642Z,49.90
2023-04-18T08:17:33.573Z,60.08
2023-04-18T08:18:33.712Z,59.00
2023-04-18T08:19:33.651Z,47.27
2023-04-18T08:20:33.675Z,22.36
2023-04-18T08:21:33.762Z,28.01
2023-04-18T08:22:33.752Z,56.27
2023-04-18T08:23:33.698Z,76.53
2023-04-18T08:24:33.776Z,16.49
2023-04-18T08:25:33.809Z,24.20
2023-04-18T08:26:34.138Z,4.03
2023-04-18T08:27:33.879Z,29.28
2023-04-18T08:28:33.879Z,49.35
2023-04-18T08:29:33.953Z,43.29
2023-04-18T08:30:33.988Z,0.00
2023-04-18T08:31:34.196Z,0.00
2023-04-18T08:32:34.050Z,0.00
2023-04-18T08:33:34.030Z,11.96
2023-04-18T08:34:34.634Z,0.00
2023-04-18T08:35:34.033Z,0.00
2023-04-18T08:36:34.031Z,0.00
2023-04-18T08:37:34.071Z,13.55
2023-04-18T08:38:34.115Z,0.00
2023-04-18T08:39:34.163Z,2.78
2023-04-18T08:40:34.167Z,19.47
2023-04-18T08:41:34.177Z,7.05
2023-04-18T08:42:34.411Z,15.43
2023-04-18T08:43:34.247Z,5.91
2023-04-18T08:44:34.511Z,8.96
2023-04-18T08:45:34.476Z,20.58
2023-04-18T08:46:34.397Z,37.87
2023-04-18T08:47:34.454Z,25.24
2023-04-18T08:48:34.460Z,51.74
2023-04-18T08:49:34.529Z,26.78
2023-04-18T08:50:34.619Z,23.46
2023-04-18T08:51:34.604Z,5.06
2023-04-18T08:52:34.662Z,25.00
2023-04-18T08:53:34.688Z,14.96
2023-04-18T08:54:35.042Z,27.79
2023-04-18T08:55:34.746Z,26.10
2023-04-18T08:56:34.780Z,23.70
2023-04-18T08:57:34.816Z,23.06
2023-04-18T08:58:34.975Z,6.01
2023-04-18T08:59:35.069Z,17.02
2023-04-18T09:00:34.856Z,44.94
2023-04-18T09:01:34.973Z,53.03
2023-04-18T09:02:35.252Z,41.28
2023-04-18T09:03:34.976Z,31.40
2023-04-18T09:04:34.997Z,30.51
2023-04-18T09:05:35.055Z,15.06
2023-04-18T09:06:35.020Z,40.62
2023-04-18T09:07:34.999Z,34.08
2023-04-18T09:08:35.107Z,61.21
2023-04-18T09:09:35.142Z,37.54
2023-04-18T09:10:35.256Z,31.33
2023-04-18T09:11:35.244Z,59.51
2023-04-18T09:12:36.050Z,49.57
2023-04-18T09:13:35.267Z,24.22
2023-04-18T09:14:35.269Z,13.44
2023-04-18T09:15:35.377Z,25.59
2023-04-18T09:16:35.494Z,30.84
2023-04-18T09:17:35.476Z,45.48
2023-04-18T09:18:35.450Z,60.06
2023-04-18T09:19:35.490Z,63.55
2023-04-18T09:20:35.605Z,43.03
2023-04-18T09:21:35.538Z,31.37
2023-04-18T09:22:35.601Z,39.86
2023-04-18T09:23:35.614Z,35.31
2023-04-18T09:24:35.639Z,41.42
2023-04-18T09:25:36.339Z,54.85
2023-04-18T09:26:35.719Z,66.03
2023-04-18T09:27:35.820Z,67.66
2023-04-18T09:28:35.736Z,66.93
2023-04-18T09:29:35.734Z,68.94
2023-04-18T09:30:36.057Z,41.32
2023-04-18T09:31:35.898Z,26.68
2023-04-18T09:32:35.994Z,47.69
2023-04-18T09:33:35.935Z,42.26
2023-04-18T09:34:36.031Z,48.12
2023-04-18T09:35:36.683Z,37.18
2023-04-18T09:36:36.155Z,39.73
2023-04-18T09:37:36.034Z,24.30
2023-04-18T09:38:36.115Z,24.78
2023-04-18T09:39:36.120Z,37.05
2023-04-18T09:40:36.644Z,31.35
2023-04-18T09:41:36.225Z,48.38
2023-04-18T09:42:36.211Z,52.92
2023-04-18T09:43:36.245Z,48.03
2023-04-18T09:44:36.294Z,38.83
2023-04-18T09:45:36.657Z,42.29
2023-04-18T09:46:36.661Z,37.46
2023-04-18T09:47:36.685Z,50.09
2023-04-18T09:48:36.608Z,40.01
2023-04-18T09:49:36.541Z,24.93
2023-04-18T09:50:36.887Z,33.12
2023-04-18T09:51:36.572Z,65.86
2023-04-18T09:52:36.568Z,44.59
2023-04-18T09:53:37.069Z,25.13
2023-04-18T09:54:36.652Z,26.15
2023-04-18T09:55:37.816Z,43.66
2023-04-18T09:56:36.662Z,56.96
2023-04-18T09:57:36.661Z,44.19
2023-04-18T09:58:36.706Z,52.69
2023-04-18T09:59:36.705Z,60.46
2023-04-18T10:00:37.092Z,43.97
2023-04-18T10:01:36.892Z,39.69
2023-04-18T10:02:36.848Z,25.92
2023-04-18T10:03:36.850Z,29.71
2023-04-18T10:04:36.993Z,35.09
2023-04-18T10:05:37.151Z,33.32
2023-04-18T10:06:36.891Z,29.77
2023-04-18T10:07:36.913Z,26.65
2023-04-18T10:08:36.972Z,51.31
2023-04-18T10:09:44.960Z,30.70
2023-04-18T10:10:38.826Z,26.05
2023-04-18T10:11:36.959Z,23.55
2023-04-18T10:12:36.886Z,32.29
2023-04-18T10:13:36.975Z,40.94
2023-04-18T10:14:36.884Z,51.69
2023-04-18T10:15:37.132Z,41.13
2023-04-18T10:16:37.062Z,53.60
2023-04-18T10:17:37.064Z,42.85
2023-04-18T10:18:37.080Z,48.92
2023-04-18T10:19:37.024Z,59.48
2023-04-18T10:20:37.064Z,39.66
2023-04-18T10:21:37.020Z,33.74
2023-04-18T10:22:37.028Z,54.43
2023-04-18T10:23:37.181Z,25.63
2023-04-18T10:24:37.162Z,29.21
2023-04-18T10:25:37.769Z,30.68
2023-04-18T10:26:37.191Z,46.76
2023-04-18T10:27:37.296Z,42.76
2023-04-18T10:28:38.548Z,46.62
2023-04-18T10:29:37.266Z,60.35
2023-04-18T10:30:37.607Z,42.42
2023-04-18T10:31:37.320Z,43.43
2023-04-18T10:32:37.330Z,65.58
2023-04-18T10:33:41.079Z,45.22
2023-04-18T10:34:38.293Z,18.64
2023-04-18T10:35:39.249Z,3.28
2023-04-18T10:36:37.326Z,7.23
2023-04-18T10:37:37.313Z,3.30
2023-04-18T10:38:37.290Z,19.07
2023-04-18T10:39:37.262Z,9.08
2023-04-18T10:40:37.766Z,24.48
2023-04-18T10:41:37.308Z,14.75
2023-04-18T10:42:37.312Z,2.58
2023-04-18T10:43:37.240Z,2.91
2023-04-18T10:44:37.231Z,28.92
2023-04-18T10:45:37.246Z,25.17
2023-04-18T10:46:37.730Z,34.86
2023-04-18T10:47:37.332Z,24.35
2023-04-18T10:48:38.630Z,32.37
2023-04-18T10:49:37.196Z,32.41
2023-04-18T10:50:37.630Z,29.04
2023-04-18T10:51:37.157Z,18.92
2023-04-18T10:52:37.173Z,26.62
2023-04-18T10:53:37.267Z,41.22
2023-04-18T10:54:37.148Z,35.39
2023-04-18T10:55:37.167Z,37.37
2023-04-18T10:56:38.139Z,32.05
2023-04-18T10:57:37.571Z,39.12
2023-04-18T10:58:44.902Z,38.26
2023-04-18T10:59:37.504Z,38.42
2023-04-18T11:00:37.184Z,39.24
2023-04-18T11:01:37.848Z,27.63
2023-04-18T11:02:37.333Z,32.95
2023-04-18T11:03:37.256Z,43.12
2023-04-18T11:04:37.194Z,45.71
2023-04-18T11:05:37.111Z,51.75
2023-04-18T11:06:37.147Z,29.84
2023-04-18T11:07:37.052Z,18.99
2023-04-18T11:08:37.138Z,31.02
2023-04-18T11:09:37.201Z,33.69
2023-04-18T11:10:37.068Z,42.34
2023-04-18T11:11:37.095Z,50.02
2023-04-18T11:12:37.103Z,41.58
2023-04-18T11:13:37.006Z,54.67
2023-04-18T11:14:37.070Z,37.68
2023-04-18T11:15:37.072Z,21.03
2023-04-18T11:16:37.412Z,24.49
2023-04-18T11:17:37.256Z,27.30
2023-04-18T11:18:37.217Z,44.40
2023-04-18T11:19:37.204Z,42.70
2023-04-18T11:20:37.312Z,37.96
2023-04-18T11:21:37.645Z,19.82
2023-04-18T11:22:37.263Z,20.99
2023-04-18T11:23:37.311Z,31.00
2023-04-18T11:24:37.269Z,23.48
2023-04-18T11:25:37.581Z,28.81
2023-04-18T11:26:37.622Z,24.11
2023-04-18T11:27:37.788Z,19.29
2023-04-18T11:28:37.404Z,26.51
2023-04-18T11:29:37.533Z,20.13
2023-04-18T11:30:37.752Z,35.07
2023-04-18T11:31:38.181Z,42.95
2023-04-18T11:32:39.018Z,40.93
2023-04-18T11:33:38.237Z,51.29
2023-04-18T11:34:38.006Z,46.24
2023-04-18T11:35:37.943Z,55.07
2023-04-18T11:36:38.136Z,49.15
2023-04-18T11:37:37.701Z,48.12
2023-04-18T11:38:37.745Z,41.34
2023-04-18T11:39:37.757Z,40.84
2023-04-18T11:40:37.782Z,32.57
2023-04-18T11:41:38.181Z,43.65
2023-04-18T11:42:37.855Z,38.39
2023-04-18T11:43:37.890Z,45.85
2023-04-18T11:44:37.906Z,44.99
2023-04-18T11:45:37.960Z,49.46
2023-04-18T11:46:38.070Z,52.45
2023-04-18T11:47:37.997Z,45.79
2023-04-18T11:48:38.041Z,33.38
2023-04-18T11:49:37.992Z,39.04
2023-04-18T11:50:38.027Z,35.89
2023-04-18T11:51:38.093Z,31.64
2023-04-18T11:52:38.057Z,43.94
2023-04-18T11:53:38.147Z,41.65
2023-04-18T11:54:38.169Z,34.66
2023-04-18T11:55:38.171Z,27.71
2023-04-18T11:56:38.214Z,38.21
2023-04-18T11:57:38.221Z,33.41
2023-04-18T11:58:38.261Z,27.78
2023-04-18T11:59:38.514Z,23.51
2023-04-18T12:00:38.337Z,27.71
2023-04-18T12:01:38.453Z,49.92
2023-04-18T12:02:38.435Z,43.75
2023-04-18T12:03:38.640Z,25.17
2023-04-18T12:04:38.723Z,32.82
2023-04-18T12:05:38.744Z,29.09
2023-04-18T12:06:38.503Z,32.68
2023-04-18T12:07:38.484Z,20.64
2023-04-18T12:08:38.518Z,26.28
2023-04-18T12:09:38.543Z,29.24
2023-04-18T12:10:38.579Z,26.38
2023-04-18T12:11:38.604Z,38.68
2023-04-18T12:12:38.624Z,47.66
2023-04-18T12:13:38.708Z,41.17
2023-04-18T12:14:38.698Z,40.12
2023-04-18T12:15:38.853Z,27.12
2023-04-18T12:16:38.773Z,25.07
2023-04-18T12:17:38.806Z,19.36
2023-04-18T12:18:38.805Z,33.46
2023-04-18T12:19:38.800Z,43.53
2023-04-18T12:20:38.857Z,45.19
2023-04-18T12:21:38.857Z,50.07
2023-04-18T12:22:38.871Z,40.05
2023-04-18T12:23:38.883Z,41.95
2023-04-18T12:24:38.928Z,40.50
2023-04-18T12:25:38.929Z,44.78
2023-04-18T12:26:39.027Z,44.04
2023-04-18T12:27:39.003Z,36.10
2023-04-18T12:28:39.005Z,33.60
2023-04-18T12:29:39.029Z,32.27
2023-04-18T12:30:39.102Z,33.96
2023-04-18T12:31:39.141Z,35.15
2023-04-18T12:32:39.173Z,25.55
2023-04-18T12:33:39.137Z,34.23
2023-04-18T12:34:39.157Z,42.99
2023-04-18T12:35:39.180Z,37.35
2023-04-18T12:36:39.282Z,39.87
2023-04-18T12:37:39.220Z,50.46
2023-04-18T12:38:39.605Z,46.27
2023-04-18T12:39:39.381Z,59.49
2023-04-18T12:40:39.362Z,42.47
2023-04-18T12:41:39.664Z,43.97
2023-04-18T12:42:39.429Z,37.23
2023-04-18T12:43:39.465Z,32.77
2023-04-18T12:44:39.437Z,42.18